MET'MAP v2.0
soon released !

Expected late october,
this new version will be
more efficient, smarter,
and hosted on a brand new
server x3 powerfull...
...and still free !


Not compatible ?
Try the mobile version !

LOG IN : | Subscribe | Disclaimer | Who is Orbifly ? |
ICAO code :

TAF - LFMO Orange - 27 Feb 2020 13:13 UTC
Data Sources :     NOAA   


- Airport Elevation : 197 ft
- IATA code : XOG
- No reported NOTAMs.


LFMO - Orange

Latest METAR recorded : 2020/02/27 12:00 LFMO 271200Z AUTO 13010KT 9999 OVC015 06/05 Q1012 TEMPO 2500 +RA BKN014
NO TAF


MET'MAP, your aeronautical weather chart ! - Copyright ORBIFLY December 2007

Programming & Development : Alexandra Zaïnal
Co-Developer : Marc-Olivier Méhu
Technical & hardware support : Manuel Goepfert
Concept & Financing : Baudouin d'Aumeries